Time;durP1;ratioP1;P1;durP2;ratioP2;P2;SDS_P1;SDS_P2;PMS_P1;PMS_P2;Temp;Humidity;BMP_temperature;BMP_pressure;BME280_temperature;BME280_humidity;BME280_pressure;Samples;Min_cycle;Max_cycle;Signal;HPM_P1;HPM_P2
2021/12/14 00:02:01;;;;;;;66.38;36.38;;;1.10;99.90;;;;;;5001845;28;20633;-88
2021/12/14 00:04:32;;;;;;;55.20;32.70;;;1.10;99.90;;;;;;5017621;28;20268;-88
2021/12/14 00:06:59;;;;;;;62.38;33.00;;;1.10;99.90;;;;;;5017535;28;20187;-89
2021/12/14 00:09:34;;;;;;;69.05;36.58;;;1.00;99.90;;;;;;5001152;28;20555;-87
2021/12/14 00:15:04;;;;;;;62.35;34.33;;;1.00;99.90;;;;;;5018241;28;20256;-87
2021/12/14 00:17:47;;;;;;;57.90;34.45;;;1.00;99.90;;;;;;5001473;28;20236;-89
2021/12/14 00:20:19;;;;;;;60.03;34.50;;;1.00;99.90;;;;;;5040116;28;20202;-87
2021/12/14 00:25:42;;;;;;;68.53;37.22;;;0.90;99.90;;;;;;4998793;28;20251;-88
2021/12/14 00:28:23;;;;;;;67.95;38.83;;;0.90;99.90;;;;;;5018086;28;20191;-87
2021/12/14 00:30:56;;;;;;;63.67;37.33;;;0.90;99.90;;;;;;5025970;28;20198;-90
2021/12/14 00:33:26;;;;;;;57.88;34.38;;;0.90;99.90;;;;;;5015932;28;20168;-89
2021/12/14 00:35:52;;;;;;;74.22;38.70;;;0.90;99.90;;;;;;5019883;28;20756;-92
2021/12/14 00:38:21;;;;;;;64.43;37.50;;;0.90;99.90;;;;;;5017950;28;20191;-89
2021/12/14 00:40:52;;;;;;;59.45;35.83;;;0.90;99.90;;;;;;5020159;28;20422;-89
2021/12/14 00:43:18;;;;;;;59.67;35.60;;;0.90;99.90;;;;;;5019027;28;20297;-90
2021/12/14 00:45:45;;;;;;;62.38;36.03;;;0.90;99.90;;;;;;4996928;28;20298;-91
2021/12/14 00:48:13;;;;;;;69.13;38.55;;;0.80;99.90;;;;;;4998744;28;20188;-89
2021/12/14 00:50:42;;;;;;;65.78;35.80;;;0.80;99.90;;;;;;4997307;28;20283;-89
2021/12/14 00:53:08;;;;;;;67.22;38.20;;;0.80;99.90;;;;;;4997066;28;20239;-92
2021/12/14 00:55:42;;;;;;;68.83;34.43;;;0.80;99.90;;;;;;4996720;28;20196;-86
2021/12/14 00:58:08;;;;;;;60.28;35.50;;;0.80;99.90;;;;;;4997995;28;20652;-89
2021/12/14 01:00:43;;;;;;;59.90;36.90;;;0.70;99.90;;;;;;4996912;28;20200;-89
2021/12/14 01:03:10;;;;;;;62.22;35.75;;;0.70;99.90;;;;;;5013531;28;20184;-86
2021/12/14 01:05:40;;;;;;;65.93;35.40;;;0.70;99.90;;;;;;4997925;28;20200;-90
2021/12/14 01:08:09;;;;;;;66.78;36.20;;;0.60;99.90;;;;;;4998407;28;20179;-86
2021/12/14 01:10:50;;;;;;;67.47;36.95;;;0.60;99.90;;;;;;4996489;28;20200;-87
2021/12/14 01:13:19;;;;;;;67.30;36.90;;;0.60;99.90;;;;;;4996818;28;20338;-87
2021/12/14 01:21:17;;;;;;;68.63;40.38;;;0.60;99.90;;;;;;5010577;28;20235;-87
2021/12/14 01:23:45;;;;;;;68.25;40.10;;;0.60;99.90;;;;;;4998176;28;20577;-89
2021/12/14 01:26:17;;;;;;;68.43;38.88;;;0.50;99.90;;;;;;4982113;28;20203;-85
2021/12/14 01:28:44;;;;;;;65.25;39.45;;;0.50;99.90;;;;;;5014043;28;20234;-90
2021/12/14 01:31:26;;;;;;;64.10;36.78;;;0.50;99.90;;;;;;4997472;28;20275;-89
2021/12/14 01:33:55;;;;;;;58.63;36.05;;;0.50;99.90;;;;;;4996124;28;20187;-87
2021/12/14 01:36:30;;;;;;;65.03;37.80;;;0.40;99.90;;;;;;4996570;28;20203;-86
2021/12/14 01:41:54;;;;;;;65.20;36.58;;;0.40;99.90;;;;;;4997189;28;20200;-90
2021/12/14 01:44:19;;;;;;;65.97;37.75;;;0.40;99.90;;;;;;4995880;28;20210;-87
2021/12/14 01:46:52;;;;;;;67.97;36.50;;;0.40;99.90;;;;;;5011671;28;20289;-87
2021/12/14 01:49:19;;;;;;;62.97;36.10;;;0.40;99.90;;;;;;4999598;28;20179;-87
2021/12/14 01:51:48;;;;;;;63.83;36.40;;;0.30;99.90;;;;;;5016215;28;20259;-87
2021/12/14 01:54:17;;;;;;;74.95;39.35;;;0.30;99.90;;;;;;5018235;28;20614;-87
2021/12/14 01:56:42;;;;;;;60.00;34.05;;;0.30;99.90;;;;;;4999016;28;20261;-89
2021/12/14 01:59:24;;;;;;;65.97;36.03;;;0.40;99.90;;;;;;5016451;28;20175;-89
2021/12/14 02:02:30;;;;;;;56.28;33.83;;;0.40;99.90;;;;;;5016233;28;20201;-89
2021/12/14 02:04:46;;;;;;;56.67;34.25;;;0.30;99.90;;;;;;5014149;28;20234;-86
2021/12/14 02:07:15;;;;;;;67.05;37.15;;;0.30;99.90;;;;;;4998484;28;20233;-87
2021/12/14 02:09:42;;;;;;;69.47;35.83;;;0.30;99.90;;;;;;5018897;28;20190;-90
2021/12/14 02:12:12;;;;;;;63.25;37.38;;;0.30;99.90;;;;;;5021551;28;20582;-89
2021/12/14 02:14:39;;;;;;;72.40;37.13;;;0.30;99.90;;;;;;5019392;28;20221;-90
2021/12/14 02:17:07;;;;;;;68.93;36.83;;;0.30;99.90;;;;;;4998692;28;20175;-89
2021/12/14 02:19:33;;;;;;;64.05;36.33;;;0.30;99.90;;;;;;5017734;28;20201;-87
2021/12/14 02:22:00;;;;;;;61.50;37.90;;;0.30;99.90;;;;;;5015075;28;20237;-87
2021/12/14 02:24:28;;;;;;;63.95;37.03;;;0.30;99.90;;;;;;4998265;28;20231;-89
2021/12/14 02:26:54;;;;;;;62.63;37.97;;;0.30;99.90;;;;;;4998450;28;20191;-89
2021/12/14 02:29:28;;;;;;;70.03;38.60;;;0.30;99.90;;;;;;5016231;28;20266;-87
2021/12/14 02:32:00;;;;;;;68.25;36.55;;;0.30;99.90;;;;;;5014754;28;21563;-86
2021/12/14 02:34:26;;;;;;;71.35;38.60;;;0.30;99.90;;;;;;5015900;28;20537;-89
2021/12/14 02:36:52;;;;;;;61.65;37.17;;;0.30;99.90;;;;;;5018256;28;20183;-89
2021/12/14 02:39:46;;;;;;;61.13;35.30;;;0.30;99.90;;;;;;4998769;28;20222;-88
2021/12/14 02:42:20;;;;;;;63.30;36.95;;;0.30;99.90;;;;;;5026067;28;20249;-87
2021/12/14 02:44:49;;;;;;;59.20;36.97;;;0.20;99.90;;;;;;4998307;28;20211;-87
2021/12/14 02:47:17;;;;;;;61.67;34.85;;;0.20;99.90;;;;;;4994619;28;20246;-87
2021/12/14 02:49:45;;;;;;;64.78;37.28;;;0.20;99.90;;;;;;4978645;28;20206;-90
2021/12/14 02:52:14;;;;;;;59.78;36.65;;;0.20;99.90;;;;;;4995880;28;20186;-88
2021/12/14 02:54:47;;;;;;;65.88;37.85;;;0.20;99.90;;;;;;4978629;28;20180;-91
2021/12/14 02:57:17;;;;;;;63.42;37.67;;;0.20;99.90;;;;;;4980220;28;20187;-89
2021/12/14 02:59:46;;;;;;;69.60;36.65;;;0.20;99.90;;;;;;4995824;28;20180;-90
2021/12/14 03:02:16;;;;;;;66.22;37.60;;;0.20;99.90;;;;;;4978534;28;20658;-92
2021/12/14 03:04:49;;;;;;;65.90;36.00;;;0.20;99.90;;;;;;4980587;28;20211;-89
2021/12/14 03:07:18;;;;;;;64.53;37.60;;;0.20;99.90;;;;;;4978782;28;20187;-91
2021/12/14 03:12:43;;;;;;;66.97;37.85;;;0.10;99.90;;;;;;4995926;28;20279;-89
2021/12/14 03:15:20;;;;;;;58.63;36.70;;;0.10;99.90;;;;;;4994489;28;20214;-89
2021/12/14 03:17:53;;;;;;;72.75;41.80;;;0.10;99.90;;;;;;4978484;28;20571;-92
2021/12/14 03:20:23;;;;;;;69.65;38.92;;;0.00;99.90;;;;;;4978446;28;20206;-92
2021/12/14 03:23:03;;;;;;;68.13;37.88;;;0.00;99.90;;;;;;4978708;28;20176;-89
2021/12/14 03:25:31;;;;;;;69.32;39.15;;;0.00;99.90;;;;;;4998386;28;20223;-89
2021/12/14 03:27:58;;;;;;;67.53;38.72;;;0.00;99.90;;;;;;4996263;28;20202;-91
2021/12/14 03:30:26;;;;;;;80.53;40.78;;;0.00;99.90;;;;;;5008134;28;20226;-90
2021/12/14 03:32:54;;;;;;;71.25;39.63;;;0.00;99.90;;;;;;4984615;28;20197;-92
2021/12/14 03:35:33;;;;;;;67.60;37.65;;;0.00;99.90;;;;;;4995188;28;20206;-93
2021/12/14 03:38:08;;;;;;;76.10;39.35;;;0.00;99.90;;;;;;4979867;28;20557;-92
2021/12/14 03:40:34;;;;;;;79.80;38.55;;;0.00;99.90;;;;;;4980854;28;20241;-89
2021/12/14 03:43:00;;;;;;;70.32;39.08;;;0.00;99.90;;;;;;4981451;28;20205;-87
2021/12/14 03:45:25;;;;;;;79.63;39.73;;;0.00;99.90;;;;;;4984443;28;20237;-90
2021/12/14 03:47:55;;;;;;;76.40;38.73;;;-0.10;99.90;;;;;;5016161;28;20190;-86
2021/12/14 03:50:25;;;;;;;63.10;38.70;;;0.00;99.90;;;;;;5015087;28;20218;-88
2021/12/14 03:52:51;;;;;;;70.22;38.83;;;-0.10;99.90;;;;;;5014863;28;20253;-88
2021/12/14 03:55:31;;;;;;;66.87;38.63;;;-0.10;99.90;;;;;;5014886;28;20203;-87
2021/12/14 03:57:58;;;;;;;76.00;38.30;;;-0.10;99.90;;;;;;5013686;28;20414;-88
2021/12/14 04:00:36;;;;;;;76.75;41.65;;;-0.10;99.90;;;;;;5013804;28;20195;-90
2021/12/14 04:03:06;;;;;;;74.43;40.22;;;-0.10;99.90;;;;;;5014376;28;20191;-91
2021/12/14 04:05:34;;;;;;;64.60;37.85;;;-0.10;99.90;;;;;;5013663;28;20191;-87
2021/12/14 04:08:00;;;;;;;70.93;38.58;;;-0.20;99.90;;;;;;5014205;28;20643;-88
2021/12/14 04:10:30;;;;;;;64.07;37.22;;;-0.20;99.90;;;;;;5014871;28;20237;-90
2021/12/14 04:12:57;;;;;;;67.88;39.08;;;-0.20;99.90;;;;;;4997685;28;20187;-87
2021/12/14 04:15:24;;;;;;;68.57;37.47;;;-0.10;99.90;;;;;;5014357;28;20206;-87
2021/12/14 04:17:49;;;;;;;76.57;38.35;;;-0.10;99.90;;;;;;5013922;28;20588;-88
2021/12/14 04:20:26;;;;;;;62.33;36.50;;;-0.10;99.90;;;;;;5013449;28;20259;-90
2021/12/14 04:22:52;;;;;;;66.18;36.13;;;-0.10;99.90;;;;;;5015533;28;20213;-88
2021/12/14 04:25:22;;;;;;;62.90;34.55;;;0.00;99.90;;;;;;5021636;28;20219;-87
2021/12/14 04:27:50;;;;;;;63.88;34.97;;;0.00;99.90;;;;;;5013796;28;20727;-86
2021/12/14 04:30:19;;;;;;;69.97;36.83;;;0.00;99.90;;;;;;4998377;28;20261;-88
2021/12/14 04:32:49;;;;;;;64.72;34.35;;;0.00;99.90;;;;;;5018139;28;20678;-90
2021/12/14 04:35:16;;;;;;;64.80;38.63;;;0.00;99.90;;;;;;5017469;28;20203;-89
2021/12/14 04:37:44;;;;;;;65.72;35.20;;;0.10;99.90;;;;;;5009079;28;20167;-90
2021/12/14 04:40:24;;;;;;;75.82;36.60;;;0.00;99.90;;;;;;5032659;28;20183;-87
2021/12/14 04:54:01;;;;;;;60.33;35.70;;;-0.10;99.90;;;;;;5018275;28;20229;-91
2021/12/14 04:56:39;;;;;;;70.45;39.22;;;0.00;99.90;;;;;;5017800;28;20672;-90
2021/12/14 04:59:29;;;;;;;71.65;38.42;;;-0.10;99.90;;;;;;5000531;28;20175;-91
2021/12/14 05:02:12;;;;;;;65.45;37.70;;;-0.10;99.90;;;;;;5016330;28;20669;-87
2021/12/14 05:04:38;;;;;;;62.58;36.88;;;-0.10;99.90;;;;;;5017736;28;20231;-90
2021/12/14 05:09:48;;;;;;;73.88;42.20;;;-0.10;99.90;;;;;;5017705;28;20227;-85
2021/12/14 05:12:20;;;;;;;67.77;41.03;;;-0.10;99.90;;;;;;5018962;28;20187;-86
2021/12/14 05:14:47;;;;;;;69.68;39.13;;;-0.20;99.90;;;;;;5018041;28;20428;-91
2021/12/14 05:17:18;;;;;;;59.00;36.65;;;-0.20;99.90;;;;;;5036802;28;20266;-88
2021/12/14 05:19:46;;;;;;;67.88;34.78;;;-0.20;99.90;;;;;;5019346;28;20179;-91
2021/12/14 05:22:21;;;;;;;63.30;36.30;;;-0.10;99.90;;;;;;5019308;28;20190;-91
2021/12/14 05:25:11;;;;;;;65.63;35.78;;;-0.10;99.90;;;;;;5019512;28;20252;-91
2021/12/14 05:27:43;;;;;;;67.15;38.22;;;0.00;99.90;;;;;;5018894;28;20195;-90
2021/12/14 05:30:25;;;;;;;60.20;37.53;;;0.00;99.90;;;;;;5020290;28;20198;-90
2021/12/14 05:33:19;;;;;;;69.68;38.63;;;0.00;99.90;;;;;;5036267;28;20187;-90
2021/12/14 05:35:47;;;;;;;59.08;38.15;;;-0.10;99.90;;;;;;5030939;28;20574;-93
2021/12/14 05:38:20;;;;;;;66.45;39.78;;;-0.10;99.90;;;;;;5044362;28;20179;-92
2021/12/14 05:43:24;;;;;;;71.57;39.47;;;-0.20;99.90;;;;;;5054479;28;20190;-93
2021/12/14 05:45:55;;;;;;;68.25;38.58;;;-0.10;99.90;;;;;;5035124;28;20247;-90
2021/12/14 05:48:33;;;;;;;70.28;40.63;;;-0.10;99.90;;;;;;5031988;28;20302;-93
2021/12/14 05:51:03;;;;;;;71.70;41.17;;;-0.20;99.90;;;;;;5036207;28;20191;-93
2021/12/14 05:53:34;;;;;;;70.78;41.00;;;-0.20;99.90;;;;;;5036746;28;20190;-90
2021/12/14 05:56:05;;;;;;;79.07;42.83;;;-0.30;99.90;;;;;;5034732;28;20210;-93
2021/12/14 05:58:31;;;;;;;70.15;40.22;;;-0.30;99.90;;;;;;5016967;28;20190;-92
2021/12/14 06:01:02;;;;;;;69.13;40.47;;;-0.30;99.90;;;;;;5018131;28;20241;-93
2021/12/14 06:03:31;;;;;;;67.60;40.58;;;-0.40;99.90;;;;;;5018272;28;20570;-93
2021/12/14 06:06:00;;;;;;;72.93;41.50;;;-0.40;99.90;;;;;;5033682;28;20695;-93
2021/12/14 06:08:32;;;;;;;69.43;38.90;;;-0.30;99.90;;;;;;5018550;28;20183;-92
2021/12/14 06:11:00;;;;;;;66.85;39.35;;;-0.30;99.90;;;;;;5016703;28;20198;-90
2021/12/14 06:13:41;;;;;;;91.13;48.25;;;-0.30;99.90;;;;;;5034433;28;20563;-93
2021/12/14 06:16:19;;;;;;;72.60;39.90;;;-0.30;99.90;;;;;;5026617;28;20690;-92
2021/12/14 06:18:45;;;;;;;64.95;38.10;;;-0.30;99.90;;;;;;5018059;28;20186;-90
2021/12/14 06:21:12;;;;;;;72.80;41.10;;;-0.30;99.90;;;;;;5018098;28;20355;-93
2021/12/14 06:23:39;;;;;;;83.97;43.05;;;-0.30;99.90;;;;;;5018162;28;20851;-90
2021/12/14 06:26:05;;;;;;;78.03;44.70;;;-0.30;99.90;;;;;;5020296;28;20222;-93
2021/12/14 06:28:32;;;;;;;75.47;45.95;;;-0.20;99.90;;;;;;5014579;28;20195;-90
2021/12/14 06:30:59;;;;;;;80.75;44.25;;;-0.20;99.90;;;;;;5015537;28;20206;-93
2021/12/14 06:33:30;;;;;;;68.63;41.80;;;-0.10;99.90;;;;;;5015895;28;20257;-92
2021/12/14 06:35:59;;;;;;;67.65;39.55;;;-0.10;99.90;;;;;;4995048;28;20324;-93
2021/12/14 06:38:32;;;;;;;70.72;39.80;;;-0.10;99.90;;;;;;5015363;28;20501;-93
2021/12/14 06:41:07;;;;;;;67.97;39.13;;;-0.10;99.90;;;;;;5012159;28;20229;-93
2021/12/14 06:43:44;;;;;;;67.10;38.75;;;0.00;99.90;;;;;;5012126;28;20244;-91
2021/12/14 06:46:40;;;;;;;88.47;49.10;;;0.00;99.90;;;;;;5012789;28;20245;-91
2021/12/14 06:49:09;;;;;;;89.90;49.45;;;0.00;99.90;;;;;;5013255;28;20226;-90
2021/12/14 06:51:46;;;;;;;90.57;49.75;;;0.10;99.90;;;;;;5027741;28;20210;-86
2021/12/14 06:54:20;;;;;;;93.40;51.63;;;0.10;99.90;;;;;;5016435;28;20509;-90
2021/12/14 06:56:52;;;;;;;87.00;50.20;;;0.10;99.90;;;;;;5007440;28;20206;-91
2021/12/14 06:59:21;;;;;;;96.82;50.33;;;0.10;99.90;;;;;;5010961;28;20281;-87
2021/12/14 07:01:51;;;;;;;84.10;46.58;;;0.20;99.90;;;;;;5039538;28;20219;-87
2021/12/14 07:04:22;;;;;;;136.60;81.55;;;0.20;99.90;;;;;;5025753;28;20213;-89
2021/12/14 07:06:57;;;;;;;159.63;99.22;;;0.20;99.90;;;;;;5014337;28;20233;-93
2021/12/14 07:09:33;;;;;;;105.82;63.08;;;0.30;99.90;;;;;;5016618;28;20167;-90
2021/12/14 07:12:01;;;;;;;91.13;50.53;;;0.30;99.90;;;;;;5019854;28;20213;-92
2021/12/14 07:14:27;;;;;;;83.53;49.45;;;0.30;99.90;;;;;;5017817;28;20179;-93
2021/12/14 07:17:01;;;;;;;94.13;52.15;;;0.40;99.90;;;;;;5035072;28;20583;-89
2021/12/14 07:19:46;;;;;;;90.80;50.30;;;0.40;99.90;;;;;;5017866;28;20182;-93
2021/12/14 07:22:40;;;;;;;78.13;51.33;;;0.50;99.90;;;;;;5018073;28;20171;-89
2021/12/14 07:25:06;;;;;;;95.47;52.90;;;0.50;99.90;;;;;;5034532;28;20268;-90
2021/12/14 07:27:37;;;;;;;89.50;51.57;;;0.60;99.90;;;;;;5015587;28;20186;-90
2021/12/14 07:30:20;;;;;;;100.68;53.10;;;0.60;99.90;;;;;;5014964;28;20454;-91
2021/12/14 07:32:56;;;;;;;82.50;48.92;;;0.60;99.90;;;;;;5047757;28;20178;-91
2021/12/14 07:35:28;;;;;;;78.32;49.58;;;0.70;99.90;;;;;;5034646;28;20214;-87
2021/12/14 07:38:04;;;;;;;83.82;52.83;;;0.70;99.90;;;;;;5013061;28;20221;-89
2021/12/14 07:40:39;;;;;;;99.00;57.33;;;0.80;99.90;;;;;;5035554;28;20202;-88
2021/12/14 07:43:23;;;;;;;106.53;60.63;;;0.90;99.90;;;;;;5035860;28;20190;-90
2021/12/14 07:45:51;;;;;;;93.45;56.03;;;0.90;99.90;;;;;;5008840;28;20241;-89
2021/12/14 07:48:23;;;;;;;86.70;52.67;;;0.90;99.90;;;;;;4991261;28;20219;-89
2021/12/14 07:50:53;;;;;;;167.32;90.93;;;1.00;99.90;;;;;;4975786;28;20211;-91
2021/12/14 07:53:40;;;;;;;144.40;86.78;;;1.00;99.90;;;;;;4974243;28;20187;-91
2021/12/14 07:56:07;;;;;;;111.70;62.72;;;1.10;99.90;;;;;;4989524;28;20562;-91
2021/12/14 07:58:39;;;;;;;110.53;66.47;;;1.10;99.90;;;;;;4976297;28;20198;-87
2021/12/14 08:01:07;;;;;;;97.47;57.58;;;1.20;99.90;;;;;;4994712;28;20242;-92
2021/12/14 08:03:33;;;;;;;125.28;68.68;;;1.20;99.90;;;;;;4988129;28;20840;-88
2021/12/14 08:06:05;;;;;;;109.20;62.90;;;1.30;99.90;;;;;;4981522;28;20828;-93
2021/12/14 08:08:41;;;;;;;87.10;52.08;;;1.30;99.90;;;;;;4980784;28;20191;-88
2021/12/14 08:11:29;;;;;;;96.05;50.05;;;1.40;99.90;;;;;;4975205;28;20207;-87
2021/12/14 08:14:03;;;;;;;86.88;50.35;;;1.40;99.90;;;;;;4968087;28;20233;-88
2021/12/14 08:17:08;;;;;;;91.35;53.83;;;1.40;99.90;;;;;;4992941;28;20432;-87
2021/12/14 08:19:38;;;;;;;100.13;58.70;;;1.50;99.90;;;;;;4976003;28;20183;-92
2021/12/14 08:22:13;;;;;;;92.30;54.05;;;1.50;99.90;;;;;;4977635;28;20194;-92
2021/12/14 08:24:46;;;;;;;82.03;49.63;;;1.60;99.90;;;;;;4994541;28;20353;-88
2021/12/14 08:27:12;;;;;;;81.82;48.10;;;1.60;99.90;;;;;;4977245;28;20286;-92
2021/12/14 08:29:38;;;;;;;71.03;44.27;;;1.70;99.90;;;;;;4979150;28;20734;-87
2021/12/14 08:32:13;;;;;;;62.30;40.33;;;1.70;99.90;;;;;;4994022;28;20436;-88
2021/12/14 08:34:46;;;;;;;69.03;39.60;;;1.70;99.90;;;;;;4991513;28;20475;-89
2021/12/14 08:37:17;;;;;;;74.35;44.97;;;1.80;99.90;;;;;;4994360;28;20183;-88
2021/12/14 08:39:54;;;;;;;76.80;46.95;;;1.80;99.90;;;;;;4976222;28;20917;-93
2021/12/14 08:42:34;;;;;;;74.05;42.88;;;1.90;99.90;;;;;;5019300;28;20190;-89
2021/12/14 08:45:24;;;;;;;62.03;41.38;;;1.90;99.90;;;;;;5014477;28;20215;-92
2021/12/14 08:48:11;;;;;;;71.38;44.35;;;2.00;99.90;;;;;;5005833;28;20651;-93
2021/12/14 08:50:53;;;;;;;67.30;42.22;;;2.00;99.90;;;;;;5015089;28;20303;-92
2021/12/14 08:53:22;;;;;;;67.15;42.80;;;2.10;99.90;;;;;;5000602;28;20196;-88
2021/12/14 08:55:52;;;;;;;69.85;39.25;;;2.20;99.90;;;;;;4998979;28;20419;-89
2021/12/14 08:58:18;;;;;;;58.08;38.42;;;2.20;99.90;;;;;;5013151;28;20733;-92
2021/12/14 09:00:50;;;;;;;64.57;38.97;;;2.20;99.90;;;;;;4998758;28;20571;-89
2021/12/14 09:03:30;;;;;;;66.57;39.15;;;2.20;99.90;;;;;;4997512;28;20683;-92
2021/12/14 09:05:57;;;;;;;64.85;39.88;;;2.20;99.90;;;;;;4998978;28;20764;-93
2021/12/14 09:08:23;;;;;;;69.68;44.35;;;2.30;99.90;;;;;;5027667;28;20179;-92
2021/12/14 09:10:51;;;;;;;79.70;48.77;;;2.30;99.90;;;;;;5013082;28;20263;-92
2021/12/14 09:13:18;;;;;;;80.03;52.60;;;2.30;99.90;;;;;;5012501;28;20190;-89
2021/12/14 09:16:07;;;;;;;81.40;49.50;;;2.30;99.90;;;;;;5026889;28;20245;-89
2021/12/14 09:18:39;;;;;;;64.45;39.60;;;2.40;99.90;;;;;;5014408;28;20952;-93
2021/12/14 09:21:10;;;;;;;65.90;40.97;;;2.30;99.90;;;;;;4996746;28;20214;-89
2021/12/14 09:23:41;;;;;;;71.07;43.05;;;2.40;99.90;;;;;;5020842;28;20218;-93
2021/12/14 09:26:12;;;;;;;88.55;52.13;;;2.30;99.90;;;;;;5034845;28;20222;-91
2021/12/14 09:28:39;;;;;;;97.43;54.55;;;2.40;99.90;;;;;;5013509;28;20292;-91
2021/12/14 09:31:13;;;;;;;88.38;47.95;;;2.40;99.90;;;;;;5022970;28;20902;-89
2021/12/14 09:33:40;;;;;;;79.63;47.72;;;2.40;99.90;;;;;;5014343;28;20182;-87
2021/12/14 09:36:12;;;;;;;77.72;45.90;;;2.50;99.90;;;;;;4996738;28;20301;-92
2021/12/14 09:38:42;;;;;;;71.10;43.80;;;2.50;99.90;;;;;;4996366;28;20242;-92
2021/12/14 09:41:11;;;;;;;66.65;40.53;;;2.50;99.90;;;;;;5004452;28;21187;-93
2021/12/14 09:43:38;;;;;;;60.20;38.25;;;2.60;99.90;;;;;;5030481;28;20215;-93
2021/12/14 09:46:06;;;;;;;64.60;39.40;;;2.60;99.90;;;;;;5011177;28;20241;-88
2021/12/14 09:48:37;;;;;;;62.25;38.13;;;2.70;99.90;;;;;;5011188;28;20276;-89
2021/12/14 09:51:07;;;;;;;62.60;39.22;;;2.70;99.90;;;;;;5010873;28;20206;-93
2021/12/14 09:53:37;;;;;;;68.32;39.88;;;2.80;99.90;;;;;;5014986;28;20854;-93
2021/12/14 09:56:05;;;;;;;68.90;44.30;;;2.80;99.90;;;;;;5017201;28;20198;-93
2021/12/14 09:58:38;;;;;;;78.63;51.10;;;2.90;99.90;;;;;;5016819;28;20190;-88
2021/12/14 10:01:16;;;;;;;75.78;46.72;;;2.90;99.90;;;;;;5015214;28;20611;-92
2021/12/14 10:03:45;;;;;;;75.75;48.30;;;3.00;99.90;;;;;;5016011;28;20220;-93
2021/12/14 10:06:14;;;;;;;80.30;50.80;;;3.00;99.90;;;;;;5031995;28;20203;-94
2021/12/14 10:08:45;;;;;;;70.70;47.17;;;3.10;99.90;;;;;;5023800;28;20201;-94
2021/12/14 10:11:34;;;;;;;78.40;46.00;;;3.20;99.90;;;;;;5037253;28;20752;-94
2021/12/14 10:14:02;;;;;;;88.15;49.92;;;3.20;99.90;;;;;;5032166;28;20194;-88
2021/12/14 10:16:28;;;;;;;73.88;46.80;;;3.20;99.90;;;;;;5015432;28;20194;-88
2021/12/14 10:19:08;;;;;;;65.30;43.95;;;3.30;99.90;;;;;;5031123;28;20189;-88
2021/12/14 10:21:47;;;;;;;66.25;44.00;;;3.30;99.90;;;;;;5033411;28;20226;-88
2021/12/14 10:24:14;;;;;;;58.88;37.08;;;3.40;99.90;;;;;;5015361;28;20273;-88
2021/12/14 10:26:47;;;;;;;59.85;37.45;;;3.40;99.90;;;;;;5034351;28;20699;-94
2021/12/14 10:29:14;;;;;;;46.42;29.10;;;3.50;99.90;;;;;;5013120;28;20655;-93
2021/12/14 10:31:45;;;;;;;44.38;30.20;;;3.50;99.90;;;;;;5017024;28;20218;-94
2021/12/14 10:34:18;;;;;;;47.85;29.00;;;3.60;99.90;;;;;;5011272;28;20186;-89
2021/12/14 10:36:50;;;;;;;48.22;30.30;;;3.60;99.90;;;;;;5010978;28;20236;-94
2021/12/14 10:39:35;;;;;;;46.15;29.70;;;3.70;99.90;;;;;;5012926;28;20183;-88
2021/12/14 10:44:59;;;;;;;51.28;31.33;;;3.80;99.90;;;;;;5055016;28;20241;-91
2021/12/14 10:47:31;;;;;;;52.25;32.50;;;3.80;99.90;;;;;;5034153;28;20186;-93
2021/12/14 10:50:02;;;;;;;41.90;28.38;;;3.90;99.90;;;;;;5040152;28;20206;-89
2021/12/14 10:52:30;;;;;;;48.72;29.73;;;3.90;99.90;;;;;;5014650;28;20228;-89
2021/12/14 10:55:02;;;;;;;46.70;28.15;;;3.90;99.90;;;;;;5014468;28;20301;-89
2021/12/14 10:57:32;;;;;;;43.15;27.92;;;3.90;99.90;;;;;;5014341;28;20640;-89
2021/12/14 10:59:59;;;;;;;40.20;26.90;;;3.90;99.90;;;;;;5012835;28;20557;-90
2021/12/14 11:02:27;;;;;;;45.40;28.42;;;4.00;99.90;;;;;;5030818;28;20186;-89
2021/12/14 11:04:57;;;;;;;40.45;27.33;;;4.00;99.90;;;;;;5030878;28;20273;-93
2021/12/14 11:07:35;;;;;;;44.03;26.92;;;4.00;99.90;;;;;;5013636;28;20182;-89
2021/12/14 11:10:07;;;;;;;42.08;27.92;;;4.10;99.90;;;;;;5010886;28;20297;-95
2021/12/14 11:12:37;;;;;;;44.28;28.90;;;4.10;99.90;;;;;;5018408;28;20709;-88
2021/12/14 11:15:12;;;;;;;40.70;27.13;;;4.10;99.90;;;;;;5038040;28;20228;-92
2021/12/14 11:20:31;;;;;;;38.35;24.98;;;4.20;99.90;;;;;;5029080;28;20241;-94
2021/12/14 11:23:11;;;;;;;33.60;24.15;;;4.20;99.90;;;;;;5017658;28;20182;-94
2021/12/14 11:25:44;;;;;;;33.80;23.30;;;4.20;99.90;;;;;;5031368;28;20222;-89
2021/12/14 11:28:15;;;;;;;37.75;24.20;;;4.30;99.90;;;;;;5009356;28;20178;-95
2021/12/14 11:31:12;;;;;;;42.75;25.00;;;4.30;99.90;;;;;;5011320;28;20314;-94
2021/12/14 11:33:47;;;;;;;39.83;25.17;;;4.40;99.90;;;;;;5000791;28;20182;-94
2021/12/14 11:36:14;;;;;;;34.20;22.50;;;4.40;99.90;;;;;;5007495;28;20198;-94
2021/12/14 11:38:48;;;;;;;36.97;23.25;;;4.50;99.90;;;;;;5027216;28;20652;-90
2021/12/14 11:41:19;;;;;;;33.92;22.17;;;4.50;99.90;;;;;;5010842;28;20222;-93
2021/12/14 11:43:56;;;;;;;31.02;22.17;;;4.60;99.90;;;;;;5008418;28;20766;-94
2021/12/14 11:46:23;;;;;;;34.28;21.95;;;4.60;99.90;;;;;;5009713;28;20253;-94
2021/12/14 11:48:49;;;;;;;29.90;19.75;;;4.70;99.90;;;;;;5011726;28;20691;-90
2021/12/14 11:51:15;;;;;;;37.93;22.20;;;4.70;99.90;;;;;;5032706;28;20209;-93
2021/12/14 11:53:50;;;;;;;35.03;21.70;;;4.80;99.90;;;;;;5039595;28;20398;-94
2021/12/14 11:56:19;;;;;;;39.47;20.88;;;4.90;99.90;;;;;;5029365;28;20183;-94
2021/12/14 11:58:50;;;;;;;31.45;20.75;;;4.90;99.90;;;;;;5030551;28;20183;-94
2021/12/14 12:01:47;;;;;;;33.75;22.30;;;4.90;99.90;;;;;;5022690;28;20730;-90
2021/12/14 12:04:29;;;;;;;35.28;20.88;;;5.00;99.90;;;;;;5030776;28;20301;-90
2021/12/14 12:09:36;;;;;;;31.73;23.20;;;5.10;99.90;;;;;;5037911;28;20214;-93
2021/12/14 12:12:08;;;;;;;36.78;22.20;;;5.20;99.90;;;;;;5011355;28;20178;-94
2021/12/14 12:14:47;;;;;;;24.25;17.77;;;5.40;99.90;;;;;;5027253;28;20214;-90
2021/12/14 12:17:25;;;;;;;25.00;17.67;;;5.60;99.90;;;;;;5011042;28;20213;-90
2021/12/14 12:20:06;;;;;;;27.25;17.10;;;5.80;99.90;;;;;;5005552;28;20203;-90
2021/12/14 12:22:58;;;;;;;22.95;16.33;;;6.00;99.90;;;;;;5028725;28;20174;-94
2021/12/14 12:25:34;;;;;;;26.02;17.15;;;6.10;99.90;;;;;;5011356;28;20233;-90
2021/12/14 12:28:27;;;;;;;23.25;16.02;;;6.20;99.90;;;;;;5007933;28;20269;-89
2021/12/14 12:31:05;;;;;;;27.70;17.42;;;6.40;99.90;;;;;;5040132;28;20664;-89
2021/12/14 12:33:40;;;;;;;29.35;18.83;;;6.50;99.90;;;;;;5009681;28;20198;-93
2021/12/14 12:36:22;;;;;;;26.02;18.42;;;6.50;99.90;;;;;;5022296;28;20206;-93
2021/12/14 12:39:10;;;;;;;27.73;16.85;;;6.60;99.90;;;;;;5017182;28;20192;-94
2021/12/14 12:41:52;;;;;;;27.55;18.00;;;6.70;99.90;;;;;;5008060;28;20209;-89
2021/12/14 12:44:23;;;;;;;28.50;18.27;;;6.70;99.90;;;;;;5008664;28;20245;-94
2021/12/14 12:46:57;;;;;;;28.80;18.98;;;6.80;99.90;;;;;;5027088;28;20309;-94
2021/12/14 12:49:28;;;;;;;31.10;19.35;;;6.80;99.90;;;;;;5008381;28;20219;-89
2021/12/14 12:51:59;;;;;;;199.70;106.53;;;6.90;99.90;;;;;;5030767;28;20190;-89
2021/12/14 12:54:33;;;;;;;51.53;29.33;;;6.90;99.90;;;;;;5030323;28;20183;-90
2021/12/14 12:57:11;;;;;;;29.73;20.75;;;6.80;99.90;;;;;;5045484;28;20178;-89
2021/12/14 13:00:09;;;;;;;32.00;18.90;;;6.80;99.90;;;;;;5036450;28;20234;-91
2021/12/14 13:02:58;;;;;;;31.17;20.42;;;6.80;99.90;;;;;;5014081;28;20185;-95
2021/12/14 13:05:50;;;;;;;31.80;20.90;;;6.80;99.90;;;;;;5017026;28;20222;-95
2021/12/14 13:08:19;;;;;;;29.45;20.27;;;6.80;99.90;;;;;;5016367;28;20281;-88
2021/12/14 13:11:06;;;;;;;32.05;19.77;;;6.70;99.90;;;;;;5041637;28;20202;-88
2021/12/14 13:13:41;;;;;;;33.80;22.63;;;6.70;99.90;;;;;;5016472;28;20201;-89
2021/12/14 13:16:21;;;;;;;28.80;19.67;;;6.70;99.90;;;;;;5011244;28;20237;-87
2021/12/14 13:19:09;;;;;;;28.27;19.50;;;6.70;99.90;;;;;;5023192;28;20243;-87
2021/12/14 13:21:53;;;;;;;30.63;21.17;;;6.70;99.90;;;;;;5028477;28;20197;-93
2021/12/14 13:24:38;;;;;;;35.70;23.35;;;6.80;99.90;;;;;;5024098;28;20276;-87
2021/12/14 13:27:24;;;;;;;44.90;31.98;;;6.90;99.90;;;;;;5011843;28;20733;-88
2021/12/14 13:29:58;;;;;;;31.70;20.38;;;7.00;99.90;;;;;;5028307;28;20208;-88
2021/12/14 13:32:35;;;;;;;24.92;16.70;;;7.10;99.90;;;;;;5010317;28;20189;-88
2021/12/14 13:35:09;;;;;;;25.65;17.45;;;7.20;99.90;;;;;;5013636;28;20206;-95
2021/12/14 13:37:42;;;;;;;28.98;18.35;;;7.20;99.90;;;;;;5032187;28;20221;-94
2021/12/14 13:40:28;;;;;;;29.00;18.33;;;7.40;99.90;;;;;;5017334;28;20226;-89
2021/12/14 13:43:15;;;;;;;30.95;23.33;;;7.50;99.90;;;;;;5018560;28;20692;-94
2021/12/14 13:45:55;;;;;;;29.17;19.80;;;7.60;99.90;;;;;;5028384;28;20226;-93
2021/12/14 13:48:25;;;;;;;31.13;19.83;;;7.80;99.90;;;;;;5029378;28;20182;-95